createdAt,value
2018-08-28T00:01:11.306Z,45.64
2018-08-28T00:03:41.866Z,46.39
2018-08-28T00:06:12.541Z,46.07
2018-08-28T00:08:43.161Z,47.02
2018-08-28T00:11:14.010Z,45.98
2018-08-28T00:13:44.568Z,46.70
2018-08-28T00:16:15.244Z,47.03
2018-08-28T00:18:45.717Z,45.40
2018-08-28T00:21:16.636Z,46.64
2018-08-28T00:23:47.308Z,46.42
2018-08-28T00:26:18.512Z,46.29
2018-08-28T00:28:49.078Z,45.76
2018-08-28T00:31:19.997Z,45.81
2018-08-28T00:33:50.441Z,46.53
2018-08-28T00:36:21.263Z,45.99
2018-08-28T00:38:51.956Z,47.14
2018-08-28T00:41:22.556Z,46.63
2018-08-28T00:43:52.996Z,46.07
2018-08-28T00:46:23.960Z,45.63
2018-08-28T00:48:54.595Z,46.57
2018-08-28T00:51:25.455Z,45.82
2018-08-28T00:53:56.049Z,44.64
2018-08-28T00:56:26.788Z,44.25
2018-08-28T00:58:57.499Z,44.63
2018-08-28T01:01:28.076Z,46.38
2018-08-28T01:03:58.502Z,45.42
2018-08-28T01:06:29.264Z,45.59
2018-08-28T01:08:59.865Z,46.72
2018-08-28T01:11:30.607Z,47.23
2018-08-28T01:14:01.190Z,46.38
2018-08-28T01:16:31.896Z,47.44
2018-08-28T01:19:02.672Z,47.35
2018-08-28T01:21:33.441Z,47.71
2018-08-28T01:24:04.041Z,47.86
2018-08-28T01:26:35.371Z,46.98
2018-08-28T01:29:05.973Z,47.47
2018-08-28T01:31:36.937Z,47.11
2018-08-28T01:34:07.572Z,46.96
2018-08-28T01:36:38.232Z,48.51
2018-08-28T01:39:09.770Z,48.95
2018-08-28T01:41:40.580Z,48.55
2018-08-28T01:44:11.267Z,47.59
2018-08-28T01:46:42.153Z,49.39
2018-08-28T01:49:12.753Z,48.99
2018-08-28T01:51:43.648Z,48.97
2018-08-28T01:54:14.272Z,48.79
2018-08-28T01:56:44.903Z,49.50
2018-08-28T01:59:15.636Z,49.14
2018-08-28T02:01:46.522Z,49.49
2018-08-28T02:04:17.151Z,51.24
2018-08-28T02:06:48.076Z,50.60
2018-08-28T02:09:18.725Z,50.57
2018-08-28T02:11:49.313Z,50.77
2018-08-28T02:14:19.913Z,50.94
2018-08-28T02:16:50.780Z,50.91
2018-08-28T02:19:21.457Z,51.22
2018-08-28T02:21:52.322Z,50.85
2018-08-28T02:24:22.752Z,50.71
2018-08-28T02:26:53.818Z,51.31
2018-08-28T02:29:24.361Z,51.15
2018-08-28T02:31:55.049Z,51.69
2018-08-28T02:34:25.632Z,51.49
2018-08-28T02:36:56.445Z,51.69
2018-08-28T02:39:26.837Z,51.37
2018-08-28T02:41:57.685Z,52.06
2018-08-28T02:44:28.337Z,52.06
2018-08-28T02:46:59.157Z,51.90
2018-08-28T02:49:29.970Z,50.43
2018-08-28T02:52:00.633Z,51.35
2018-08-28T02:54:31.017Z,50.70
2018-08-28T02:57:01.833Z,51.41
2018-08-28T02:59:32.374Z,50.85
2018-08-28T03:02:03.087Z,50.82
2018-08-28T03:04:33.796Z,50.70
2018-08-28T03:07:04.664Z,50.67
2018-08-28T03:09:35.224Z,50.77
2018-08-28T03:12:06.226Z,51.22
2018-08-28T03:14:36.990Z,51.81
2018-08-28T03:17:07.863Z,52.57
2018-08-28T03:19:38.444Z,52.13
2018-08-28T03:22:09.129Z,51.01
2018-08-28T03:24:39.704Z,50.90
2018-08-28T03:27:10.501Z,51.17
2018-08-28T03:29:41.140Z,51.47
2018-08-28T03:32:11.939Z,52.66
2018-08-28T03:34:42.605Z,51.39
2018-08-28T03:37:13.217Z,50.41
2018-08-28T03:39:43.859Z,49.90
2018-08-28T03:42:14.611Z,50.14
2018-08-28T03:44:45.311Z,50.12
2018-08-28T03:47:16.009Z,50.68
2018-08-28T03:49:46.693Z,50.62
2018-08-28T03:52:17.430Z,50.59
2018-08-28T03:54:48.245Z,51.43
2018-08-28T03:57:18.929Z,51.42
2018-08-28T03:59:49.572Z,51.83
2018-08-28T04:02:20.633Z,51.35
2018-08-28T04:04:51.122Z,51.25
2018-08-28T04:07:22.072Z,50.81
2018-08-28T04:09:52.825Z,51.30
2018-08-28T04:12:23.529Z,50.88
2018-08-28T04:14:54.099Z,51.31
2018-08-28T04:17:24.879Z,52.45
2018-08-28T04:19:55.604Z,51.13
2018-08-28T04:22:26.392Z,49.88
2018-08-28T04:24:57.056Z,50.61
2018-08-28T04:27:27.757Z,50.44
2018-08-28T04:29:58.377Z,49.48
2018-08-28T04:32:29.429Z,48.79
2018-08-28T04:35:00.101Z,48.88
2018-08-28T04:37:30.801Z,51.23
2018-08-28T04:40:01.705Z,51.16
2018-08-28T04:42:32.788Z,49.58
2018-08-28T04:45:03.381Z,49.87
2018-08-28T04:47:34.320Z,50.35
2018-08-28T04:50:04.889Z,49.51
2018-08-28T04:52:35.794Z,50.09
2018-08-28T04:55:06.560Z,49.33
2018-08-28T04:57:37.424Z,49.29
2018-08-28T05:00:09.222Z,50.48
2018-08-28T05:02:39.897Z,49.48
2018-08-28T05:05:10.864Z,49.34
2018-08-28T05:07:41.501Z,50.47
2018-08-28T05:10:12.218Z,50.07
2018-08-28T05:12:42.959Z,48.12
2018-08-28T05:15:13.525Z,48.85
2018-08-28T05:17:44.338Z,48.63
2018-08-28T05:20:15.050Z,47.85
2018-08-28T05:22:45.902Z,48.26
2018-08-28T05:25:16.625Z,47.14
2018-08-28T05:27:47.492Z,48.22
2018-08-28T05:30:18.185Z,48.91
2018-08-28T05:32:48.873Z,48.02
2018-08-28T05:35:19.489Z,46.98
2018-08-28T05:37:50.354Z,47.12
2018-08-28T05:40:21.025Z,46.78
2018-08-28T05:42:51.529Z,45.12
2018-08-28T05:45:22.173Z,46.40
2018-08-28T05:47:53.041Z,46.87
2018-08-28T05:50:23.854Z,45.60
2018-08-28T05:52:54.959Z,45.94
2018-08-28T05:55:25.626Z,44.80
2018-08-28T05:57:56.593Z,45.70
2018-08-28T06:00:27.370Z,42.96
2018-08-28T06:02:58.209Z,44.28
2018-08-28T06:05:28.838Z,45.34
2018-08-28T06:07:59.651Z,44.98
2018-08-28T06:10:30.169Z,44.02
2018-08-28T06:13:01.111Z,43.64
2018-08-28T06:15:31.737Z,43.43
2018-08-28T06:18:02.565Z,42.00
2018-08-28T06:20:33.285Z,44.45
2018-08-28T06:23:03.929Z,42.78
2018-08-28T06:25:34.374Z,42.24
2018-08-28T06:28:05.309Z,41.33
2018-08-28T06:30:35.987Z,41.07
2018-08-28T06:33:06.865Z,41.53
2018-08-28T06:35:37.621Z,43.09
2018-08-28T06:38:08.341Z,40.78
2018-08-28T06:40:38.927Z,40.04
2018-08-28T06:43:10.678Z,39.53
2018-08-28T06:45:41.188Z,40.04
2018-08-28T06:48:12.010Z,40.25
2018-08-28T06:50:42.602Z,41.36
2018-08-28T06:53:13.302Z,41.63
2018-08-28T06:55:43.892Z,40.90
2018-08-28T06:58:14.919Z,40.28
2018-08-28T07:00:45.484Z,38.30
2018-08-28T07:03:16.344Z,39.27
2018-08-28T07:05:46.864Z,39.56
2018-08-28T07:08:17.689Z,39.67
2018-08-28T07:10:48.429Z,39.46
2018-08-28T07:13:19.236Z,39.87
2018-08-28T07:15:49.918Z,38.71
2018-08-28T07:18:20.623Z,38.25
2018-08-28T07:20:51.099Z,36.45
2018-08-28T07:23:21.901Z,37.70
2018-08-28T07:25:52.551Z,37.72
2018-08-28T07:28:23.542Z,36.90
2018-08-28T07:30:54.290Z,36.89
2018-08-28T07:33:25.122Z,36.62
2018-08-28T07:35:55.525Z,37.30
2018-08-28T07:38:26.310Z,37.87
2018-08-28T07:40:57.002Z,37.16
2018-08-28T07:43:28.071Z,37.68
2018-08-28T07:45:58.714Z,37.38
2018-08-28T07:48:30.491Z,38.70
2018-08-28T07:51:01.317Z,36.81
2018-08-28T07:53:32.193Z,37.28
2018-08-28T07:56:02.882Z,36.41
2018-08-28T07:58:33.642Z,38.77
2018-08-28T08:01:04.266Z,38.44
2018-08-28T08:03:35.121Z,37.11
2018-08-28T08:06:05.861Z,36.26
2018-08-28T08:08:36.657Z,34.13
2018-08-28T08:11:07.389Z,34.23
2018-08-28T08:13:38.443Z,35.34
2018-08-28T08:16:09.021Z,33.88
2018-08-28T08:18:39.833Z,33.93
2018-08-28T08:21:10.585Z,33.93
2018-08-28T08:23:41.627Z,33.91
2018-08-28T08:26:12.357Z,33.42
2018-08-28T08:28:43.317Z,32.74
2018-08-28T08:31:13.759Z,33.00
2018-08-28T08:33:44.520Z,32.38
2018-08-28T08:36:15.069Z,34.09
2018-08-28T08:38:45.759Z,35.68
2018-08-28T08:41:16.469Z,31.98
2018-08-28T08:43:47.373Z,32.69
2018-08-28T08:46:17.908Z,31.89
2018-08-28T08:48:48.784Z,31.61
2018-08-28T08:51:19.530Z,31.18
2018-08-28T08:53:50.689Z,32.25
2018-08-28T08:56:21.297Z,31.40
2018-08-28T08:58:52.194Z,31.60
2018-08-28T09:01:22.940Z,31.22
2018-08-28T09:03:53.679Z,29.70
2018-08-28T09:06:24.284Z,30.05
2018-08-28T09:08:55.097Z,29.58
2018-08-28T09:11:25.846Z,31.52
2018-08-28T09:13:56.697Z,31.07
2018-08-28T09:16:27.325Z,32.45
2018-08-28T09:18:58.161Z,29.24
2018-08-28T09:21:30.748Z,28.43
2018-08-28T09:24:01.738Z,28.53
2018-08-28T09:26:32.301Z,29.68
2018-08-28T09:29:03.281Z,29.52
2018-08-28T09:31:33.940Z,31.38
2018-08-28T09:34:04.593Z,29.30
2018-08-28T09:36:35.253Z,31.45
2018-08-28T09:39:07.305Z,28.27
2018-08-28T09:41:38.112Z,27.52
2018-08-28T09:44:08.907Z,27.94
2018-08-28T09:46:39.572Z,26.23
2018-08-28T09:49:10.399Z,27.35
2018-08-28T09:51:41.182Z,27.02
2018-08-28T09:54:11.943Z,27.97
2018-08-28T09:56:42.529Z,26.43
2018-08-28T09:59:13.356Z,25.36
2018-08-28T10:01:45.586Z,26.30
2018-08-28T10:04:17.254Z,27.37
2018-08-28T10:06:47.928Z,27.22
2018-08-28T10:09:19.677Z,26.33
2018-08-28T10:11:50.242Z,25.54
2018-08-28T10:14:20.974Z,26.50
2018-08-28T10:16:51.509Z,24.55
2018-08-28T10:19:22.202Z,25.04
2018-08-28T10:21:52.901Z,25.49
2018-08-28T10:24:23.937Z,25.42
2018-08-28T10:26:54.582Z,24.70
2018-08-28T10:29:25.517Z,25.63
2018-08-28T10:31:56.109Z,25.12
2018-08-28T10:34:26.889Z,22.76
2018-08-28T10:36:57.468Z,24.48
2018-08-28T10:39:28.251Z,22.99
2018-08-28T10:41:58.900Z,23.78
2018-08-28T10:44:29.821Z,25.97
2018-08-28T10:47:00.548Z,24.55
2018-08-28T10:49:31.288Z,24.46
2018-08-28T10:52:02.045Z,23.40
2018-08-28T10:54:32.722Z,23.83
2018-08-28T10:57:03.312Z,22.56
2018-08-28T10:59:34.289Z,22.56
2018-08-28T11:02:04.694Z,22.01
2018-08-28T11:04:36.002Z,22.61
2018-08-28T11:07:06.592Z,23.83
2018-08-28T11:09:37.461Z,22.42
2018-08-28T11:12:08.133Z,21.18
2018-08-28T11:14:41.264Z,22.02
2018-08-28T11:17:12.115Z,21.76
2018-08-28T11:19:43.069Z,22.90
2018-08-28T11:22:13.777Z,24.54
2018-08-28T11:24:44.625Z,21.74
2018-08-28T11:27:15.113Z,23.04
2018-08-28T11:29:46.096Z,21.89
2018-08-28T11:32:16.765Z,22.48
2018-08-28T11:34:47.493Z,21.92
2018-08-28T11:37:18.131Z,21.91
2018-08-28T11:39:49.134Z,21.65
2018-08-28T11:42:19.782Z,21.93
2018-08-28T11:44:50.633Z,21.74
2018-08-28T11:47:21.378Z,22.56
2018-08-28T11:49:52.267Z,22.42
2018-08-28T11:52:22.997Z,22.26
2018-08-28T11:54:53.825Z,20.77
2018-08-28T11:57:24.316Z,20.26
2018-08-28T11:59:54.996Z,19.67
2018-08-28T12:02:25.600Z,20.82
2018-08-28T12:04:56.410Z,21.76
2018-08-28T12:07:27.172Z,21.83
2018-08-28T12:09:58.085Z,22.91
2018-08-28T12:12:28.688Z,22.98
2018-08-28T12:14:59.552Z,23.76
2018-08-28T12:17:30.084Z,25.01
2018-08-28T12:20:00.837Z,24.44
2018-08-28T12:22:31.525Z,23.69
2018-08-28T12:25:02.312Z,23.37
2018-08-28T12:27:32.908Z,23.19
2018-08-28T12:30:03.911Z,22.06
2018-08-28T12:32:34.565Z,22.25
2018-08-28T12:35:05.636Z,23.84
2018-08-28T12:37:36.070Z,24.41
2018-08-28T12:40:07.082Z,24.00
2018-08-28T12:42:37.702Z,23.79
2018-08-28T12:45:08.997Z,23.64
2018-08-28T12:47:40.057Z,24.17
2018-08-28T12:50:11.734Z,23.47
2018-08-28T12:52:42.385Z,24.38
2018-08-28T12:55:13.205Z,25.53
2018-08-28T12:57:43.973Z,25.30
2018-08-28T13:00:15.065Z,24.44
2018-08-28T13:02:45.621Z,22.01
2018-08-28T13:05:16.517Z,24.11
2018-08-28T13:07:47.143Z,23.37
2018-08-28T13:10:18.003Z,21.76
2018-08-28T13:12:48.664Z,23.07
2018-08-28T13:15:19.480Z,20.93
2018-08-28T13:17:50.177Z,19.92
2018-08-28T13:20:21.149Z,20.74
2018-08-28T13:22:51.768Z,20.30
2018-08-28T13:25:22.835Z,20.55
2018-08-28T13:27:53.396Z,19.11
2018-08-28T13:30:24.309Z,20.51
2018-08-28T13:32:54.657Z,20.73
2018-08-28T13:35:25.321Z,20.66
2018-08-28T13:37:55.933Z,22.64
2018-08-28T13:40:26.713Z,22.17
2018-08-28T13:42:57.309Z,21.99
2018-08-28T13:45:28.315Z,21.15
2018-08-28T13:47:58.995Z,22.16
2018-08-28T13:50:29.997Z,22.57
2018-08-28T13:53:00.584Z,21.70
2018-08-28T13:55:31.481Z,19.99
2018-08-28T13:58:02.129Z,21.42
2018-08-28T14:00:32.991Z,22.15
2018-08-28T14:03:03.693Z,22.15
2018-08-28T14:05:34.565Z,23.33
2018-08-28T14:08:05.209Z,22.86
2018-08-28T14:10:36.016Z,22.07
2018-08-28T14:13:06.676Z,22.67
2018-08-28T14:15:37.306Z,22.30
2018-08-28T14:18:08.149Z,22.62
2018-08-28T14:20:38.922Z,21.44
2018-08-28T14:23:09.468Z,21.20
2018-08-28T14:25:40.425Z,21.70
2018-08-28T14:28:11.139Z,21.09
2018-08-28T14:30:42.242Z,21.72
2018-08-28T14:33:13.334Z,21.50
2018-08-28T14:35:44.555Z,21.20
2018-08-28T14:38:15.137Z,19.02
2018-08-28T14:40:46.111Z,20.53
2018-08-28T14:43:16.565Z,19.69
2018-08-28T14:45:47.412Z,20.32
2018-08-28T14:48:18.126Z,18.11
2018-08-28T14:50:48.862Z,18.69
2018-08-28T14:53:19.590Z,18.30
2018-08-28T14:55:50.325Z,20.33
2018-08-28T14:58:20.898Z,17.88
2018-08-28T15:00:51.897Z,18.33
2018-08-28T15:03:22.524Z,18.61
2018-08-28T15:05:53.421Z,17.36
2018-08-28T15:08:24.133Z,19.58
2018-08-28T15:10:54.749Z,19.94
2018-08-28T15:13:25.409Z,19.33
2018-08-28T15:15:56.316Z,18.86
2018-08-28T15:18:27.133Z,19.02
2018-08-28T15:20:58.074Z,19.92
2018-08-28T15:23:28.698Z,22.29
2018-08-28T15:25:59.853Z,20.71
2018-08-28T15:28:30.585Z,20.52
2018-08-28T15:31:01.602Z,19.66
2018-08-28T15:33:32.324Z,20.84
2018-08-28T15:36:03.123Z,18.98
2018-08-28T15:38:33.712Z,18.82
2018-08-28T15:41:04.444Z,19.96
2018-08-28T15:43:35.037Z,19.64
2018-08-28T15:46:06.005Z,20.10
2018-08-28T15:48:36.649Z,21.06
2018-08-28T15:51:07.603Z,20.12
2018-08-28T15:53:38.173Z,19.66
2018-08-28T15:56:09.877Z,20.69
2018-08-28T15:58:40.648Z,21.60
2018-08-28T16:01:11.561Z,20.94
2018-08-28T16:03:42.209Z,22.41
2018-08-28T16:06:13.054Z,22.41
2018-08-28T16:08:43.697Z,22.21
2018-08-28T16:11:14.730Z,22.51
2018-08-28T16:13:45.479Z,21.66
2018-08-28T16:16:16.238Z,22.59
2018-08-28T16:18:46.832Z,23.91
2018-08-28T16:21:17.649Z,23.54
2018-08-28T16:23:49.652Z,22.66
2018-08-28T16:26:20.117Z,24.21
2018-08-28T16:28:50.837Z,24.81
2018-08-28T16:31:21.596Z,23.28
2018-08-28T16:33:52.077Z,23.37
2018-08-28T16:36:22.993Z,24.13
2018-08-28T16:38:53.683Z,24.61
2018-08-28T16:41:24.473Z,24.67
2018-08-28T16:43:55.137Z,24.73
2018-08-28T16:46:25.914Z,24.96
2018-08-28T16:48:56.348Z,24.82
2018-08-28T16:51:27.193Z,24.91
2018-08-28T16:53:57.824Z,26.29
2018-08-28T16:56:29.064Z,26.25
2018-08-28T16:59:00.699Z,26.00
2018-08-28T17:01:33.045Z,26.25
2018-08-28T17:04:05.437Z,26.94
2018-08-28T17:06:36.998Z,27.34
2018-08-28T17:09:08.652Z,26.65
2018-08-28T17:11:39.426Z,26.77
2018-08-28T17:14:10.244Z,27.23
2018-08-28T17:16:41.425Z,27.19
2018-08-28T17:19:12.029Z,27.18
2018-08-28T17:21:43.007Z,28.10
2018-08-28T17:24:13.726Z,28.51
2018-08-28T17:26:44.553Z,28.27
2018-08-28T17:29:15.297Z,27.95
2018-08-28T17:31:46.578Z,28.59
2018-08-28T17:34:17.187Z,28.68
2018-08-28T17:36:47.848Z,30.39
2018-08-28T17:39:18.320Z,30.01
2018-08-28T17:41:49.144Z,29.39
2018-08-28T17:44:19.592Z,28.50
2018-08-28T17:46:50.394Z,29.61
2018-08-28T17:49:21.338Z,29.75
2018-08-28T17:51:52.580Z,29.75
2018-08-28T17:54:23.105Z,30.05
2018-08-28T17:56:53.941Z,30.19
2018-08-28T17:59:24.679Z,29.75
2018-08-28T18:01:55.459Z,29.57
2018-08-28T18:04:26.072Z,29.62
2018-08-28T18:06:56.980Z,29.63
2018-08-28T18:09:27.757Z,29.60
2018-08-28T18:11:58.807Z,30.44
2018-08-28T18:14:29.906Z,31.11
2018-08-28T18:17:00.790Z,30.31
2018-08-28T18:19:31.396Z,30.05
2018-08-28T18:22:02.128Z,30.24
2018-08-28T18:24:32.721Z,31.68
2018-08-28T18:27:03.584Z,29.90
2018-08-28T18:29:34.196Z,31.87
2018-08-28T18:32:04.945Z,32.51
2018-08-28T18:34:35.853Z,31.93
2018-08-28T18:37:06.993Z,31.54
2018-08-28T18:39:37.696Z,30.92
2018-08-28T18:42:08.588Z,34.67
2018-08-28T18:44:39.321Z,34.11
2018-08-28T18:47:10.954Z,34.18
2018-08-28T18:49:41.641Z,36.37
2018-08-28T18:52:12.426Z,36.42
2018-08-28T18:54:43.006Z,36.85
2018-08-28T18:57:13.897Z,35.21
2018-08-28T18:59:44.549Z,35.57
2018-08-28T19:02:15.418Z,34.87
2018-08-28T19:04:46.050Z,35.03
2018-08-28T19:07:16.841Z,34.51
2018-08-28T19:09:47.507Z,33.07
2018-08-28T19:12:18.165Z,34.30
2018-08-28T19:14:48.749Z,35.72
2018-08-28T19:17:19.451Z,34.57
2018-08-28T19:19:50.076Z,34.04
2018-08-28T19:22:20.809Z,34.75
2018-08-28T19:24:51.426Z,35.75
2018-08-28T19:27:22.440Z,35.87
2018-08-28T19:29:53.165Z,36.18
2018-08-28T19:32:24.281Z,36.17
2018-08-28T19:34:54.844Z,35.53
2018-08-28T19:37:25.714Z,34.49
2018-08-28T19:39:56.370Z,36.45
2018-08-28T19:42:27.286Z,35.63
2018-08-28T19:44:57.894Z,33.03
2018-08-28T19:47:28.728Z,31.98
2018-08-28T19:49:59.433Z,33.71
2018-08-28T19:52:30.377Z,36.63
2018-08-28T19:55:00.996Z,36.27
2018-08-28T19:57:31.885Z,35.52
2018-08-28T20:00:02.593Z,34.54
2018-08-28T20:02:33.512Z,34.28
2018-08-28T20:05:04.237Z,34.42
2018-08-28T20:07:34.882Z,34.37
2018-08-28T20:10:05.375Z,34.54
2018-08-28T20:12:36.152Z,34.11
2018-08-28T20:15:06.941Z,34.22
2018-08-28T20:17:37.705Z,35.22
2018-08-28T20:20:08.312Z,36.14
2018-08-28T20:22:39.363Z,34.73
2018-08-28T20:25:09.968Z,33.91
2018-08-28T20:27:40.713Z,34.31
2018-08-28T20:30:11.506Z,34.70
2018-08-28T20:32:42.302Z,35.61
2018-08-28T20:35:12.880Z,35.12
2018-08-28T20:37:43.864Z,35.31
2018-08-28T20:40:14.446Z,36.70
2018-08-28T20:42:45.097Z,35.38
2018-08-28T20:45:15.767Z,35.84
2018-08-28T20:47:46.525Z,35.89
2018-08-28T20:50:17.075Z,35.98
2018-08-28T20:52:48.092Z,35.51
2018-08-28T20:55:18.533Z,35.80
2018-08-28T20:57:49.438Z,35.75
2018-08-28T21:00:20.301Z,36.13
2018-08-28T21:02:51.282Z,36.51
2018-08-28T21:05:26.781Z,36.29
2018-08-28T21:08:00.854Z,35.09
2018-08-28T21:10:31.893Z,36.61
2018-08-28T21:13:02.878Z,37.28
2018-08-28T21:15:33.480Z,35.99
2018-08-28T21:18:03.973Z,36.86
2018-08-28T21:20:34.642Z,36.51
2018-08-28T21:23:05.893Z,35.12
2018-08-28T21:25:36.420Z,34.33
2018-08-28T21:28:07.144Z,34.73
2018-08-28T21:30:37.805Z,33.72
2018-08-28T21:33:09.025Z,33.10
2018-08-28T21:35:39.726Z,33.19
2018-08-28T21:38:10.544Z,33.47
2018-08-28T21:40:41.108Z,33.09
2018-08-28T21:43:12.090Z,33.21
2018-08-28T21:45:42.642Z,32.62
2018-08-28T21:48:13.602Z,33.06
2018-08-28T21:50:44.097Z,32.52
2018-08-28T21:53:14.973Z,32.89
2018-08-28T21:55:45.624Z,32.96
2018-08-28T21:58:16.560Z,32.29
2018-08-28T22:00:51.137Z,31.69
2018-08-28T22:03:21.872Z,32.97
2018-08-28T22:05:52.421Z,32.35
2018-08-28T22:08:23.120Z,32.68
2018-08-28T22:10:53.681Z,31.97
2018-08-28T22:13:24.610Z,32.09
2018-08-28T22:15:55.217Z,32.90
2018-08-28T22:18:25.932Z,32.63
2018-08-28T22:20:57.152Z,33.35
2018-08-28T22:23:27.993Z,38.02
2018-08-28T22:25:58.429Z,37.50
2018-08-28T22:28:29.168Z,35.74
2018-08-28T22:30:59.890Z,36.53
2018-08-28T22:33:30.545Z,37.02
2018-08-28T22:36:01.181Z,38.34
2018-08-28T22:38:31.810Z,38.81
2018-08-28T22:41:02.408Z,38.42
2018-08-28T22:43:33.449Z,39.82
2018-08-28T22:46:04.185Z,40.40
2018-08-28T22:48:35.021Z,40.80
2018-08-28T22:51:05.747Z,40.84
2018-08-28T22:53:36.380Z,41.34
2018-08-28T22:56:07.115Z,42.02
2018-08-28T22:58:38.321Z,41.18
2018-08-28T23:01:08.896Z,41.71
2018-08-28T23:03:39.997Z,43.31
2018-08-28T23:06:10.773Z,43.80
2018-08-28T23:08:41.473Z,42.57
2018-08-28T23:11:12.024Z,44.10
2018-08-28T23:13:42.564Z,43.56
2018-08-28T23:16:13.341Z,43.04
2018-08-28T23:18:44.205Z,44.15
2018-08-28T23:21:14.732Z,44.54
2018-08-28T23:23:45.429Z,43.00
2018-08-28T23:26:16.073Z,44.60
2018-08-28T23:28:46.774Z,43.95
2018-08-28T23:31:17.474Z,45.85
2018-08-28T23:33:48.064Z,45.47
2018-08-28T23:36:18.709Z,45.52
2018-08-28T23:38:49.622Z,46.17
2018-08-28T23:41:20.372Z,44.97
2018-08-28T23:43:51.212Z,46.63
2018-08-28T23:46:21.888Z,47.58
2018-08-28T23:48:52.981Z,48.29
2018-08-28T23:51:23.356Z,48.15
2018-08-28T23:53:54.048Z,46.84
2018-08-28T23:56:24.669Z,48.95
2018-08-28T23:58:55.317Z,47.92
